sensor_id;sensor_type;location;lat;lon;timestamp;P1;durP1;ratioP1;P2;durP2;ratioP2
4023;SDS011;2026;51.002;13.668;2023-03-01T00:00:21;43.07;;;21.80;;
4023;SDS011;2026;51.002;13.668;2023-03-01T00:05:26;45.33;;;23.67;;
4023;SDS011;2026;51.002;13.668;2023-03-01T00:10:28;40.13;;;22.80;;
4023;SDS011;2026;51.002;13.668;2023-03-01T00:15:31;33.40;;;21.10;;
4023;SDS011;2026;51.002;13.668;2023-03-01T00:20:37;44.33;;;22.77;;
4023;SDS011;2026;51.002;13.668;2023-03-01T00:25:41;35.83;;;20.63;;
4023;SDS011;2026;51.002;13.668;2023-03-01T00:30:44;47.10;;;22.73;;
4023;SDS011;2026;51.002;13.668;2023-03-01T00:35:49;43.63;;;22.57;;
4023;SDS011;2026;51.002;13.668;2023-03-01T00:40:52;40.90;;;20.87;;
4023;SDS011;2026;51.002;13.668;2023-03-01T00:45:55;41.37;;;21.00;;
4023;SDS011;2026;51.002;13.668;2023-03-01T00:51:05;40.10;;;20.70;;
4023;SDS011;2026;51.002;13.668;2023-03-01T00:56:10;50.63;;;22.53;;
4023;SDS011;2026;51.002;13.668;2023-03-01T01:01:14;43.70;;;22.33;;
4023;SDS011;2026;51.002;13.668;2023-03-01T01:06:25;38.67;;;22.00;;
4023;SDS011;2026;51.002;13.668;2023-03-01T01:11:29;44.63;;;21.27;;
4023;SDS011;2026;51.002;13.668;2023-03-01T01:16:33;42.50;;;20.87;;
4023;SDS011;2026;51.002;13.668;2023-03-01T01:21:37;46.13;;;21.37;;
4023;SDS011;2026;51.002;13.668;2023-03-01T01:26:40;37.33;;;19.50;;
4023;SDS011;2026;51.002;13.668;2023-03-01T01:31:43;35.83;;;21.23;;
4023;SDS011;2026;51.002;13.668;2023-03-01T01:36:49;34.20;;;20.40;;
4023;SDS011;2026;51.002;13.668;2023-03-01T01:41:52;37.47;;;20.70;;
4023;SDS011;2026;51.002;13.668;2023-03-01T01:46:55;36.53;;;20.60;;
4023;SDS011;2026;51.002;13.668;2023-03-01T01:52:03;38.47;;;19.60;;
4023;SDS011;2026;51.002;13.668;2023-03-01T01:57:14;38.70;;;20.63;;
4023;SDS011;2026;51.002;13.668;2023-03-01T02:02:20;39.57;;;19.87;;
4023;SDS011;2026;51.002;13.668;2023-03-01T02:07:25;43.20;;;20.77;;
4023;SDS011;2026;51.002;13.668;2023-03-01T02:12:29;43.13;;;21.20;;
4023;SDS011;2026;51.002;13.668;2023-03-01T02:17:32;37.93;;;18.33;;
4023;SDS011;2026;51.002;13.668;2023-03-01T02:22:38;34.00;;;17.60;;
4023;SDS011;2026;51.002;13.668;2023-03-01T02:27:44;39.20;;;19.83;;
4023;SDS011;2026;51.002;13.668;2023-03-01T02:32:53;39.67;;;18.70;;
4023;SDS011;2026;51.002;13.668;2023-03-01T02:38:06;37.47;;;18.40;;
4023;SDS011;2026;51.002;13.668;2023-03-01T02:43:11;44.70;;;19.30;;
4023;SDS011;2026;51.002;13.668;2023-03-01T02:48:17;35.70;;;18.57;;
4023;SDS011;2026;51.002;13.668;2023-03-01T02:53:21;42.30;;;18.67;;
4023;SDS011;2026;51.002;13.668;2023-03-01T02:58:35;35.40;;;17.87;;
4023;SDS011;2026;51.002;13.668;2023-03-01T03:03:48;34.97;;;18.07;;
4023;SDS011;2026;51.002;13.668;2023-03-01T03:08:51;41.70;;;19.70;;
4023;SDS011;2026;51.002;13.668;2023-03-01T03:13:54;36.83;;;18.30;;
4023;SDS011;2026;51.002;13.668;2023-03-01T03:19:00;37.03;;;19.60;;
4023;SDS011;2026;51.002;13.668;2023-03-01T03:24:06;38.10;;;18.20;;
4023;SDS011;2026;51.002;13.668;2023-03-01T03:29:09;32.83;;;17.87;;
4023;SDS011;2026;51.002;13.668;2023-03-01T03:34:13;28.80;;;17.17;;
4023;SDS011;2026;51.002;13.668;2023-03-01T03:39:19;37.10;;;19.20;;
4023;SDS011;2026;51.002;13.668;2023-03-01T03:44:22;37.23;;;17.83;;
4023;SDS011;2026;51.002;13.668;2023-03-01T03:49:26;35.23;;;17.70;;
4023;SDS011;2026;51.002;13.668;2023-03-01T03:54:29;38.83;;;19.10;;
4023;SDS011;2026;51.002;13.668;2023-03-01T03:59:32;34.30;;;18.23;;
4023;SDS011;2026;51.002;13.668;2023-03-01T04:04:37;35.13;;;18.83;;
4023;SDS011;2026;51.002;13.668;2023-03-01T04:09:39;41.43;;;18.50;;
4023;SDS011;2026;51.002;13.668;2023-03-01T04:14:43;34.03;;;18.50;;
4023;SDS011;2026;51.002;13.668;2023-03-01T04:19:50;35.40;;;17.77;;
4023;SDS011;2026;51.002;13.668;2023-03-01T04:24:54;36.73;;;18.03;;
4023;SDS011;2026;51.002;13.668;2023-03-01T04:29:58;33.33;;;18.53;;
4023;SDS011;2026;51.002;13.668;2023-03-01T04:35:02;37.60;;;18.30;;
4023;SDS011;2026;51.002;13.668;2023-03-01T04:40:06;33.60;;;18.23;;
4023;SDS011;2026;51.002;13.668;2023-03-01T04:45:14;35.37;;;17.80;;
4023;SDS011;2026;51.002;13.668;2023-03-01T04:50:19;40.50;;;19.60;;
4023;SDS011;2026;51.002;13.668;2023-03-01T04:55:23;35.47;;;18.40;;
4023;SDS011;2026;51.002;13.668;2023-03-01T05:00:27;34.80;;;17.90;;
4023;SDS011;2026;51.002;13.668;2023-03-01T05:05:32;33.60;;;17.70;;
4023;SDS011;2026;51.002;13.668;2023-03-01T05:10:36;36.27;;;19.70;;
4023;SDS011;2026;51.002;13.668;2023-03-01T05:15:40;41.03;;;18.83;;
4023;SDS011;2026;51.002;13.668;2023-03-01T05:20:44;37.60;;;18.13;;
4023;SDS011;2026;51.002;13.668;2023-03-01T05:25:47;39.43;;;18.90;;
4023;SDS011;2026;51.002;13.668;2023-03-01T05:30:53;41.77;;;18.83;;
4023;SDS011;2026;51.002;13.668;2023-03-01T05:35:59;47.00;;;21.63;;
4023;SDS011;2026;51.002;13.668;2023-03-01T05:41:02;48.60;;;22.40;;
4023;SDS011;2026;51.002;13.668;2023-03-01T05:46:05;44.73;;;21.77;;
4023;SDS011;2026;51.002;13.668;2023-03-01T05:51:10;48.80;;;21.67;;
4023;SDS011;2026;51.002;13.668;2023-03-01T05:56:13;40.97;;;22.30;;
4023;SDS011;2026;51.002;13.668;2023-03-01T06:01:33;42.23;;;20.87;;
4023;SDS011;2026;51.002;13.668;2023-03-01T06:06:39;41.87;;;21.10;;
4023;SDS011;2026;51.002;13.668;2023-03-01T06:11:41;44.87;;;22.30;;
4023;SDS011;2026;51.002;13.668;2023-03-01T06:16:45;44.20;;;20.50;;
4023;SDS011;2026;51.002;13.668;2023-03-01T06:21:49;40.17;;;20.50;;
4023;SDS011;2026;51.002;13.668;2023-03-01T06:26:52;38.83;;;19.30;;
4023;SDS011;2026;51.002;13.668;2023-03-01T06:31:55;43.50;;;20.20;;
4023;SDS011;2026;51.002;13.668;2023-03-01T06:37:00;44.20;;;22.20;;
4023;SDS011;2026;51.002;13.668;2023-03-01T06:42:04;37.40;;;22.07;;
4023;SDS011;2026;51.002;13.668;2023-03-01T06:47:07;43.80;;;22.10;;
4023;SDS011;2026;51.002;13.668;2023-03-01T06:52:11;37.20;;;20.53;;
4023;SDS011;2026;51.002;13.668;2023-03-01T06:57:14;45.67;;;22.20;;
4023;SDS011;2026;51.002;13.668;2023-03-01T07:02:17;51.10;;;24.50;;
4023;SDS011;2026;51.002;13.668;2023-03-01T07:07:22;57.67;;;27.37;;
4023;SDS011;2026;51.002;13.668;2023-03-01T07:12:25;50.63;;;26.67;;
4023;SDS011;2026;51.002;13.668;2023-03-01T07:17:28;48.23;;;25.40;;
4023;SDS011;2026;51.002;13.668;2023-03-01T07:22:32;43.37;;;23.87;;
4023;SDS011;2026;51.002;13.668;2023-03-01T07:27:36;50.40;;;24.70;;
4023;SDS011;2026;51.002;13.668;2023-03-01T07:32:39;52.60;;;26.33;;
4023;SDS011;2026;51.002;13.668;2023-03-01T07:37:44;43.70;;;24.37;;
4023;SDS011;2026;51.002;13.668;2023-03-01T07:42:47;48.80;;;25.17;;
4023;SDS011;2026;51.002;13.668;2023-03-01T07:47:50;46.43;;;25.10;;
4023;SDS011;2026;51.002;13.668;2023-03-01T07:52:55;46.50;;;25.63;;
4023;SDS011;2026;51.002;13.668;2023-03-01T07:57:57;58.93;;;27.57;;
4023;SDS011;2026;51.002;13.668;2023-03-01T08:03:00;52.83;;;26.57;;
4023;SDS011;2026;51.002;13.668;2023-03-01T08:08:05;51.50;;;28.13;;
4023;SDS011;2026;51.002;13.668;2023-03-01T08:13:08;57.90;;;29.20;;
4023;SDS011;2026;51.002;13.668;2023-03-01T08:18:11;55.80;;;26.77;;
4023;SDS011;2026;51.002;13.668;2023-03-01T08:23:16;50.23;;;25.90;;
4023;SDS011;2026;51.002;13.668;2023-03-01T08:28:19;50.43;;;25.07;;
4023;SDS011;2026;51.002;13.668;2023-03-01T08:33:22;48.43;;;26.83;;
4023;SDS011;2026;51.002;13.668;2023-03-01T08:38:27;51.27;;;25.70;;
4023;SDS011;2026;51.002;13.668;2023-03-01T08:43:30;52.57;;;26.67;;
4023;SDS011;2026;51.002;13.668;2023-03-01T08:48:33;45.97;;;25.47;;
4023;SDS011;2026;51.002;13.668;2023-03-01T08:53:38;54.03;;;26.90;;
4023;SDS011;2026;51.002;13.668;2023-03-01T08:58:43;69.80;;;29.93;;
4023;SDS011;2026;51.002;13.668;2023-03-01T09:03:46;53.57;;;27.00;;
4023;SDS011;2026;51.002;13.668;2023-03-01T09:08:51;52.20;;;26.40;;
4023;SDS011;2026;51.002;13.668;2023-03-01T09:13:54;39.53;;;21.73;;
4023;SDS011;2026;51.002;13.668;2023-03-01T09:18:57;36.10;;;20.07;;
4023;SDS011;2026;51.002;13.668;2023-03-01T09:24:01;43.80;;;19.53;;
4023;SDS011;2026;51.002;13.668;2023-03-01T09:29:04;37.20;;;20.33;;
4023;SDS011;2026;51.002;13.668;2023-03-01T09:34:07;35.80;;;20.20;;
4023;SDS011;2026;51.002;13.668;2023-03-01T09:39:12;35.30;;;20.53;;
4023;SDS011;2026;51.002;13.668;2023-03-01T09:44:21;38.77;;;20.10;;
4023;SDS011;2026;51.002;13.668;2023-03-01T09:49:30;37.30;;;18.90;;
4023;SDS011;2026;51.002;13.668;2023-03-01T09:54:37;40.37;;;21.23;;
4023;SDS011;2026;51.002;13.668;2023-03-01T09:59:45;39.70;;;20.57;;
4023;SDS011;2026;51.002;13.668;2023-03-01T10:04:57;36.73;;;19.60;;
4023;SDS011;2026;51.002;13.668;2023-03-01T10:10:23;39.60;;;19.33;;
4023;SDS011;2026;51.002;13.668;2023-03-01T10:15:32;40.97;;;20.90;;
4023;SDS011;2026;51.002;13.668;2023-03-01T10:20:42;33.43;;;18.47;;
4023;SDS011;2026;51.002;13.668;2023-03-01T10:25:55;40.07;;;19.90;;
4023;SDS011;2026;51.002;13.668;2023-03-01T10:31:10;39.93;;;21.23;;
4023;SDS011;2026;51.002;13.668;2023-03-01T10:36:16;40.23;;;20.00;;
4023;SDS011;2026;51.002;13.668;2023-03-01T10:41:20;33.77;;;18.83;;
4023;SDS011;2026;51.002;13.668;2023-03-01T10:46:26;37.50;;;17.20;;
4023;SDS011;2026;51.002;13.668;2023-03-01T10:51:31;33.27;;;18.73;;
4023;SDS011;2026;51.002;13.668;2023-03-01T10:56:46;36.20;;;19.80;;
4023;SDS011;2026;51.002;13.668;2023-03-01T11:02:02;38.80;;;20.00;;
4023;SDS011;2026;51.002;13.668;2023-03-01T11:07:25;37.20;;;19.73;;
4023;SDS011;2026;51.002;13.668;2023-03-01T11:12:29;33.27;;;19.10;;
4023;SDS011;2026;51.002;13.668;2023-03-01T11:17:33;39.73;;;21.23;;
4023;SDS011;2026;51.002;13.668;2023-03-01T11:22:55;37.30;;;19.23;;
4023;SDS011;2026;51.002;13.668;2023-03-01T11:28:03;39.80;;;20.30;;
4023;SDS011;2026;51.002;13.668;2023-03-01T11:33:13;36.23;;;18.53;;
4023;SDS011;2026;51.002;13.668;2023-03-01T11:38:21;40.00;;;19.33;;
4023;SDS011;2026;51.002;13.668;2023-03-01T11:43:28;39.10;;;21.40;;
4023;SDS011;2026;51.002;13.668;2023-03-01T11:48:43;34.70;;;17.60;;
4023;SDS011;2026;51.002;13.668;2023-03-01T11:53:59;35.30;;;18.97;;
4023;SDS011;2026;51.002;13.668;2023-03-01T12:04:58;25.97;;;14.80;;
4023;SDS011;2026;51.002;13.668;2023-03-01T12:10:20;28.33;;;15.60;;
4023;SDS011;2026;51.002;13.668;2023-03-01T12:15:34;26.90;;;15.23;;
4023;SDS011;2026;51.002;13.668;2023-03-01T12:20:46;27.53;;;14.30;;
4023;SDS011;2026;51.002;13.668;2023-03-01T12:25:58;26.70;;;14.87;;
4023;SDS011;2026;51.002;13.668;2023-03-01T12:31:20;23.60;;;13.80;;
4023;SDS011;2026;51.002;13.668;2023-03-01T12:36:46;27.57;;;13.37;;
4023;SDS011;2026;51.002;13.668;2023-03-01T12:42:01;23.73;;;13.10;;
4023;SDS011;2026;51.002;13.668;2023-03-01T12:47:20;23.50;;;12.90;;
4023;SDS011;2026;51.002;13.668;2023-03-01T12:52:33;23.90;;;13.37;;
4023;SDS011;2026;51.002;13.668;2023-03-01T12:57:41;26.20;;;14.20;;
4023;SDS011;2026;51.002;13.668;2023-03-01T13:02:54;26.97;;;13.97;;
4023;SDS011;2026;51.002;13.668;2023-03-01T13:08:05;28.00;;;14.50;;
4023;SDS011;2026;51.002;13.668;2023-03-01T13:13:14;27.80;;;15.47;;
4023;SDS011;2026;51.002;13.668;2023-03-01T13:23:47;31.70;;;16.60;;
4023;SDS011;2026;51.002;13.668;2023-03-01T13:28:52;25.37;;;14.20;;
4023;SDS011;2026;51.002;13.668;2023-03-01T13:33:59;22.70;;;13.70;;
4023;SDS011;2026;51.002;13.668;2023-03-01T13:39:03;27.37;;;16.37;;
4023;SDS011;2026;51.002;13.668;2023-03-01T13:44:11;26.27;;;16.00;;
4023;SDS011;2026;51.002;13.668;2023-03-01T13:49:17;29.90;;;15.70;;
4023;SDS011;2026;51.002;13.668;2023-03-01T13:54:24;30.37;;;17.57;;
4023;SDS011;2026;51.002;13.668;2023-03-01T13:59:31;36.00;;;17.83;;
4023;SDS011;2026;51.002;13.668;2023-03-01T14:04:36;27.80;;;15.67;;
4023;SDS011;2026;51.002;13.668;2023-03-01T14:09:40;27.73;;;15.83;;
4023;SDS011;2026;51.002;13.668;2023-03-01T14:14:50;29.47;;;16.97;;
4023;SDS011;2026;51.002;13.668;2023-03-01T14:20:01;28.13;;;16.07;;
4023;SDS011;2026;51.002;13.668;2023-03-01T14:25:17;26.03;;;15.10;;
4023;SDS011;2026;51.002;13.668;2023-03-01T14:30:27;32.07;;;15.97;;
4023;SDS011;2026;51.002;13.668;2023-03-01T14:35:35;30.20;;;16.60;;
4023;SDS011;2026;51.002;13.668;2023-03-01T14:40:38;28.07;;;16.00;;
4023;SDS011;2026;51.002;13.668;2023-03-01T14:45:42;32.00;;;18.97;;
4023;SDS011;2026;51.002;13.668;2023-03-01T14:50:51;28.57;;;15.53;;
4023;SDS011;2026;51.002;13.668;2023-03-01T14:55:56;42.73;;;17.57;;
4023;SDS011;2026;51.002;13.668;2023-03-01T15:01:04;32.20;;;17.47;;
4023;SDS011;2026;51.002;13.668;2023-03-01T15:06:10;25.90;;;14.30;;
4023;SDS011;2026;51.002;13.668;2023-03-01T15:11:17;24.67;;;14.60;;
4023;SDS011;2026;51.002;13.668;2023-03-01T15:16:26;29.77;;;16.17;;
4023;SDS011;2026;51.002;13.668;2023-03-01T15:21:34;29.97;;;16.43;;
4023;SDS011;2026;51.002;13.668;2023-03-01T15:26:42;28.17;;;15.23;;
4023;SDS011;2026;51.002;13.668;2023-03-01T15:31:54;31.27;;;15.23;;
4023;SDS011;2026;51.002;13.668;2023-03-01T15:37:01;31.53;;;16.80;;
4023;SDS011;2026;51.002;13.668;2023-03-01T15:42:10;49.27;;;24.17;;
4023;SDS011;2026;51.002;13.668;2023-03-01T15:47:25;31.40;;;17.83;;
4023;SDS011;2026;51.002;13.668;2023-03-01T15:52:32;30.30;;;17.57;;
4023;SDS011;2026;51.002;13.668;2023-03-01T15:57:40;70.80;;;34.60;;
4023;SDS011;2026;51.002;13.668;2023-03-01T16:02:44;34.67;;;18.70;;
4023;SDS011;2026;51.002;13.668;2023-03-01T16:07:49;32.43;;;16.10;;
4023;SDS011;2026;51.002;13.668;2023-03-01T16:12:52;33.33;;;16.80;;
4023;SDS011;2026;51.002;13.668;2023-03-01T16:17:55;29.70;;;16.27;;
4023;SDS011;2026;51.002;13.668;2023-03-01T16:23:01;32.27;;;16.43;;
4023;SDS011;2026;51.002;13.668;2023-03-01T16:28:05;29.13;;;16.13;;
4023;SDS011;2026;51.002;13.668;2023-03-01T16:33:11;29.87;;;17.47;;
4023;SDS011;2026;51.002;13.668;2023-03-01T16:38:35;30.00;;;17.00;;
4023;SDS011;2026;51.002;13.668;2023-03-01T16:43:39;30.10;;;16.40;;
4023;SDS011;2026;51.002;13.668;2023-03-01T16:48:42;29.17;;;15.50;;
4023;SDS011;2026;51.002;13.668;2023-03-01T16:53:47;29.63;;;16.40;;
4023;SDS011;2026;51.002;13.668;2023-03-01T16:58:51;35.07;;;17.87;;
4023;SDS011;2026;51.002;13.668;2023-03-01T17:03:54;33.13;;;16.40;;
4023;SDS011;2026;51.002;13.668;2023-03-01T17:08:58;30.10;;;16.60;;
4023;SDS011;2026;51.002;13.668;2023-03-01T17:14:01;29.30;;;14.50;;
4023;SDS011;2026;51.002;13.668;2023-03-01T17:19:04;28.33;;;15.57;;
4023;SDS011;2026;51.002;13.668;2023-03-01T17:24:09;38.50;;;20.80;;
4023;SDS011;2026;51.002;13.668;2023-03-01T17:29:13;50.17;;;25.00;;
4023;SDS011;2026;51.002;13.668;2023-03-01T17:34:19;54.03;;;27.90;;
4023;SDS011;2026;51.002;13.668;2023-03-01T17:39:23;47.37;;;21.93;;
4023;SDS011;2026;51.002;13.668;2023-03-01T17:44:33;32.27;;;18.97;;
4023;SDS011;2026;51.002;13.668;2023-03-01T17:49:36;35.90;;;18.50;;
4023;SDS011;2026;51.002;13.668;2023-03-01T17:54:40;30.33;;;15.60;;
4023;SDS011;2026;51.002;13.668;2023-03-01T17:59:43;35.80;;;19.47;;
4023;SDS011;2026;51.002;13.668;2023-03-01T18:04:46;28.33;;;16.70;;
4023;SDS011;2026;51.002;13.668;2023-03-01T18:09:50;36.60;;;20.10;;
4023;SDS011;2026;51.002;13.668;2023-03-01T18:14:54;31.80;;;17.30;;
4023;SDS011;2026;51.002;13.668;2023-03-01T18:19:57;37.40;;;20.67;;
4023;SDS011;2026;51.002;13.668;2023-03-01T18:25:01;38.53;;;19.30;;
4023;SDS011;2026;51.002;13.668;2023-03-01T18:30:05;33.93;;;17.60;;
4023;SDS011;2026;51.002;13.668;2023-03-01T18:35:10;31.27;;;16.67;;
4023;SDS011;2026;51.002;13.668;2023-03-01T18:40:14;43.93;;;20.37;;
4023;SDS011;2026;51.002;13.668;2023-03-01T18:45:18;37.10;;;21.87;;
4023;SDS011;2026;51.002;13.668;2023-03-01T18:50:21;42.50;;;22.17;;
4023;SDS011;2026;51.002;13.668;2023-03-01T18:55:25;43.33;;;22.93;;
4023;SDS011;2026;51.002;13.668;2023-03-01T19:00:28;37.93;;;20.03;;
4023;SDS011;2026;51.002;13.668;2023-03-01T19:05:31;36.30;;;20.90;;
4023;SDS011;2026;51.002;13.668;2023-03-01T19:10:35;42.23;;;22.70;;
4023;SDS011;2026;51.002;13.668;2023-03-01T19:15:38;40.90;;;21.90;;
4023;SDS011;2026;51.002;13.668;2023-03-01T19:20:41;37.23;;;21.20;;
4023;SDS011;2026;51.002;13.668;2023-03-01T19:25:48;36.90;;;21.37;;
4023;SDS011;2026;51.002;13.668;2023-03-01T19:30:51;40.00;;;21.03;;
4023;SDS011;2026;51.002;13.668;2023-03-01T19:36:01;37.50;;;21.17;;
4023;SDS011;2026;51.002;13.668;2023-03-01T19:41:07;42.53;;;23.63;;
4023;SDS011;2026;51.002;13.668;2023-03-01T19:46:11;45.17;;;22.47;;
4023;SDS011;2026;51.002;13.668;2023-03-01T19:51:15;46.23;;;23.13;;
4023;SDS011;2026;51.002;13.668;2023-03-01T19:56:20;46.43;;;20.90;;
4023;SDS011;2026;51.002;13.668;2023-03-01T20:01:23;44.53;;;23.40;;
4023;SDS011;2026;51.002;13.668;2023-03-01T20:06:26;36.83;;;20.53;;
4023;SDS011;2026;51.002;13.668;2023-03-01T20:11:32;42.57;;;22.20;;
4023;SDS011;2026;51.002;13.668;2023-03-01T20:16:35;43.47;;;22.37;;
4023;SDS011;2026;51.002;13.668;2023-03-01T20:21:38;46.77;;;24.90;;
4023;SDS011;2026;51.002;13.668;2023-03-01T20:26:42;42.80;;;24.13;;
4023;SDS011;2026;51.002;13.668;2023-03-01T20:31:45;39.30;;;21.93;;
4023;SDS011;2026;51.002;13.668;2023-03-01T20:36:48;46.17;;;22.93;;
4023;SDS011;2026;51.002;13.668;2023-03-01T20:41:53;44.93;;;22.43;;
4023;SDS011;2026;51.002;13.668;2023-03-01T20:46:56;42.30;;;22.77;;
4023;SDS011;2026;51.002;13.668;2023-03-01T20:51:59;34.40;;;18.30;;
4023;SDS011;2026;51.002;13.668;2023-03-01T20:57:03;36.73;;;17.50;;
4023;SDS011;2026;51.002;13.668;2023-03-01T21:02:08;38.23;;;21.27;;
4023;SDS011;2026;51.002;13.668;2023-03-01T21:07:11;42.20;;;22.20;;
4023;SDS011;2026;51.002;13.668;2023-03-01T21:12:16;41.27;;;23.00;;
4023;SDS011;2026;51.002;13.668;2023-03-01T21:17:19;45.13;;;23.60;;
4023;SDS011;2026;51.002;13.668;2023-03-01T21:22:21;46.47;;;25.20;;
4023;SDS011;2026;51.002;13.668;2023-03-01T21:27:26;41.07;;;21.80;;
4023;SDS011;2026;51.002;13.668;2023-03-01T21:32:29;40.00;;;21.30;;
4023;SDS011;2026;51.002;13.668;2023-03-01T21:37:32;39.87;;;19.90;;
4023;SDS011;2026;51.002;13.668;2023-03-01T21:42:36;43.37;;;22.70;;
4023;SDS011;2026;51.002;13.668;2023-03-01T21:47:39;42.30;;;20.40;;
4023;SDS011;2026;51.002;13.668;2023-03-01T21:52:42;39.63;;;21.40;;
4023;SDS011;2026;51.002;13.668;2023-03-01T21:57:46;47.33;;;21.27;;
4023;SDS011;2026;51.002;13.668;2023-03-01T22:02:49;39.60;;;21.03;;
4023;SDS011;2026;51.002;13.668;2023-03-01T22:07:52;45.67;;;22.80;;
4023;SDS011;2026;51.002;13.668;2023-03-01T22:12:57;40.50;;;19.27;;
4023;SDS011;2026;51.002;13.668;2023-03-01T22:18:01;40.17;;;20.50;;
4023;SDS011;2026;51.002;13.668;2023-03-01T22:23:04;44.77;;;22.60;;
4023;SDS011;2026;51.002;13.668;2023-03-01T22:28:08;42.53;;;21.47;;
4023;SDS011;2026;51.002;13.668;2023-03-01T22:33:11;43.70;;;22.00;;
4023;SDS011;2026;51.002;13.668;2023-03-01T22:38:14;43.97;;;21.87;;
4023;SDS011;2026;51.002;13.668;2023-03-01T22:43:18;44.90;;;23.50;;
4023;SDS011;2026;51.002;13.668;2023-03-01T22:48:21;46.90;;;23.47;;
4023;SDS011;2026;51.002;13.668;2023-03-01T22:53:25;47.67;;;23.70;;
4023;SDS011;2026;51.002;13.668;2023-03-01T22:58:29;41.67;;;23.27;;
4023;SDS011;2026;51.002;13.668;2023-03-01T23:03:32;38.73;;;22.03;;
4023;SDS011;2026;51.002;13.668;2023-03-01T23:08:35;42.67;;;22.83;;
4023;SDS011;2026;51.002;13.668;2023-03-01T23:13:40;43.87;;;20.70;;
4023;SDS011;2026;51.002;13.668;2023-03-01T23:18:43;48.93;;;22.90;;
4023;SDS011;2026;51.002;13.668;2023-03-01T23:23:46;41.73;;;20.20;;
4023;SDS011;2026;51.002;13.668;2023-03-01T23:28:51;36.63;;;19.80;;
4023;SDS011;2026;51.002;13.668;2023-03-01T23:33:54;40.33;;;20.70;;
4023;SDS011;2026;51.002;13.668;2023-03-01T23:38:57;39.50;;;21.63;;
4023;SDS011;2026;51.002;13.668;2023-03-01T23:44:04;40.43;;;22.63;;
4023;SDS011;2026;51.002;13.668;2023-03-01T23:49:08;41.97;;;21.27;;
4023;SDS011;2026;51.002;13.668;2023-03-01T23:54:14;46.97;;;24.40;;
4023;SDS011;2026;51.002;13.668;2023-03-01T23:59:21;51.33;;;26.70;;
